Aérodrome :
LOGIN :

S'inscrire | Disclaimer

   EN    FR    IT 

 










Légende :    VFR   VFR Marginal   IFR   IFR Intensif   IFR Très Intensif
Visi : 
Plafond : 
>= 8 km
>= 3000ft
5 à 8 km
1000 à 3000 ft
1500m à 5 km
500 à 1000 ft
800 à 1500m
200 à 500 ft
< 800m
< 200 ft
Symboles :   Orages  Brouillard  Fortes neiges  Fortes précipitations  Vent > 20 kt
SIGMETs :   Divers  Orages  Givrage  Turbulence  Onde Orograph.  Cendres Volcan.







- Altitude de l'aérodrome : 526 ft
- Code IATA : LTN
- Voir les cartes d'approche


EGGW - London Luton

DERNIER METAR :
  • 220720Z AUTO 21009KT 9999 OVC010 08/06 Q1028

METARs EXPIRÉS :
  • 220650Z AUTO 21010KT 9999 OVC011 08/06 Q1028
  • 220620Z AUTO 20008KT 9999 OVC011 08/06 Q1028
  • 220550Z AUTO 20007KT 9999 OVC012 09/06 Q1028
  • 220520Z AUTO 20007KT 160V220 9999 OVC013 09/06 Q1028
  • 220450Z AUTO 20007KT 160V220 9999 OVC014 09/06 Q1028

TAF TAF EGGW
Valide du 22 à 06h jusqu'au 23 à 06h UTC


220502Z 2206/2306 20003KT 9999 BKN014
PROB30
TEMPO 2206/2209 9000 BKN008
BECMG 2209/2212 BKN020
BECMG 2218/2221 26010KT
BECMG 2300/2303 BKN014
PROB30
TEMPO 2301/2305 8000 -RADZ BKN008
BECMG 2303/2306 36010KT FEW016
ATIS : +44 1582 395 204
Pas de NOTAMs connus pour ce terrain.



MET'MAP, la Météo Aéronautique d'un coup d'oeil ! - Copyright ORBIFLY Décembre 2007 - Disclaimer

ORBIFLY MET'MAP TEAM :

Programmation & Développement : Alexandra Zaïnal
Conception & Développement : Baudouin d'Aumeries
Co-Programmation & Développement : Marc-Olivier Méhu
Soutien technique & logistique : Manuel Goepfert

Contact : metmap@orbifly.com




SOURCES & CREDITS :

   NOAA